Time;durP1;ratioP1;P1;durP2;ratioP2;P2;SDS_P1;SDS_P2;PMS_P1;PMS_P2;Temp;Humidity;BMP_temperature;BMP_pressure;BME280_temperature;BME280_humidity;BME280_pressure;Samples;Min_cycle;Max_cycle;Signal;HPM_P1;HPM_P2
2024/01/18 00:02:12;;;;;;;61.47;36.67;;;1.50;99.90;;;;;;10077806;29;20281;-80
2024/01/18 00:07:15;;;;;;;69.20;39.13;;;1.70;99.90;;;;;;10095269;29;20832;-80
2024/01/18 00:12:17;;;;;;;89.73;46.30;;;2.00;99.90;;;;;;10083104;29;20257;-79
2024/01/18 00:17:20;;;;;;;162.80;67.87;;;1.70;99.90;;;;;;10062217;29;20327;-79
2024/01/18 00:22:23;;;;;;;74.00;33.00;;;1.40;99.90;;;;;;10056496;29;20241;-79
2024/01/18 00:27:25;;;;;;;59.70;34.17;;;1.30;99.90;;;;;;10056291;29;20245;-79
2024/01/18 00:32:28;;;;;;;69.93;38.80;;;1.70;99.90;;;;;;10055378;29;20265;-79
2024/01/18 00:37:30;;;;;;;78.90;45.07;;;1.80;99.90;;;;;;10055805;29;20265;-79
2024/01/18 00:42:34;;;;;;;76.13;46.73;;;1.90;99.90;;;;;;10055361;29;20234;-79
2024/01/18 00:47:36;;;;;;;73.13;43.70;;;2.20;99.90;;;;;;10056180;29;20265;-80
2024/01/18 00:52:39;;;;;;;67.73;40.80;;;2.30;99.90;;;;;;10053771;29;20261;-79
2024/01/18 00:57:42;;;;;;;76.00;44.57;;;2.40;99.90;;;;;;10074642;29;20294;-79
2024/01/18 01:02:44;;;;;;;82.40;49.73;;;2.40;99.90;;;;;;10054733;29;20636;-79
2024/01/18 01:07:46;;;;;;;81.67;45.73;;;2.40;99.90;;;;;;10055010;29;20305;-79
2024/01/18 01:12:49;;;;;;;78.17;42.17;;;2.50;99.90;;;;;;10054078;29;20257;-79
2024/01/18 01:17:51;;;;;;;60.87;38.20;;;2.50;99.90;;;;;;10055512;29;20305;-79
2024/01/18 01:22:54;;;;;;;73.70;44.70;;;2.60;99.90;;;;;;10053479;29;20240;-80
2024/01/18 01:27:57;;;;;;;68.80;42.60;;;2.70;99.90;;;;;;10054042;29;20241;-80
2024/01/18 01:33:00;;;;;;;73.40;46.37;;;2.80;99.90;;;;;;10053659;29;20254;-80
2024/01/18 01:38:03;;;;;;;72.60;46.60;;;2.70;99.90;;;;;;10067372;29;20301;-80
2024/01/18 01:43:05;;;;;;;69.10;42.50;;;2.70;99.90;;;;;;10053710;29;20233;-80
2024/01/18 01:48:08;;;;;;;61.93;36.67;;;2.40;99.90;;;;;;10053503;29;20688;-79
2024/01/18 01:53:12;;;;;;;71.70;41.70;;;2.10;99.90;;;;;;10052945;29;20261;-80
2024/01/18 01:58:16;;;;;;;63.90;36.60;;;2.00;99.90;;;;;;10052799;29;20246;-80
2024/01/18 02:03:18;;;;;;;59.93;38.40;;;1.90;99.90;;;;;;10052911;29;20249;-80
2024/01/18 02:08:22;;;;;;;72.23;43.30;;;1.70;99.90;;;;;;10052336;29;20242;-80
2024/01/18 02:13:25;;;;;;;69.97;42.67;;;1.40;99.90;;;;;;10053043;29;20265;-79
2024/01/18 02:18:28;;;;;;;61.03;36.50;;;1.20;99.90;;;;;;10068682;29;20236;-79
2024/01/18 02:23:32;;;;;;;51.53;33.40;;;1.20;99.90;;;;;;10090797;29;20308;-80
2024/01/18 02:28:34;;;;;;;148.33;86.33;;;1.50;99.90;;;;;;10060342;29;20701;-80
2024/01/18 02:33:37;;;;;;;114.80;55.87;;;1.70;99.90;;;;;;10052068;29;20305;-79
2024/01/18 02:38:40;;;;;;;79.10;42.93;;;2.00;99.90;;;;;;10051723;29;20269;-80
2024/01/18 02:43:43;;;;;;;62.20;38.53;;;2.10;99.90;;;;;;10051978;29;20317;-80
2024/01/18 02:48:45;;;;;;;72.73;39.50;;;2.20;99.90;;;;;;10051935;29;20245;-79
2024/01/18 02:53:48;;;;;;;71.60;40.57;;;2.10;99.90;;;;;;10050930;29;20264;-80
2024/01/18 02:58:50;;;;;;;41.37;25.60;;;2.20;99.90;;;;;;10050992;29;20313;-80
2024/01/18 03:03:53;;;;;;;84.30;50.07;;;2.50;99.90;;;;;;10051031;29;20293;-80
2024/01/18 03:08:55;;;;;;;70.30;40.83;;;2.70;99.90;;;;;;10051496;29;20649;-80
2024/01/18 03:13:58;;;;;;;62.53;39.23;;;2.60;99.90;;;;;;10051208;29;20630;-80
2024/01/18 03:19:00;;;;;;;82.50;50.10;;;2.40;99.90;;;;;;10054942;29;20270;-80
2024/01/18 03:24:03;;;;;;;102.87;50.90;;;2.30;99.90;;;;;;10050951;29;20396;-80
2024/01/18 03:29:07;;;;;;;78.60;48.37;;;2.50;99.90;;;;;;10049884;29;20233;-79
2024/01/18 03:34:10;;;;;;;58.73;34.43;;;2.30;99.90;;;;;;10050814;29;20331;-80
2024/01/18 03:39:13;;;;;;;40.43;24.87;;;2.10;99.90;;;;;;10052120;29;20265;-80
2024/01/18 03:44:15;;;;;;;62.30;37.97;;;2.10;99.90;;;;;;10057368;29;20271;-80
2024/01/18 03:49:18;;;;;;;75.20;44.47;;;2.00;99.90;;;;;;10058462;29;20229;-80
2024/01/18 03:54:21;;;;;;;64.20;41.47;;;2.10;99.90;;;;;;10057826;29;20237;-80
2024/01/18 03:59:23;;;;;;;63.83;40.53;;;2.30;99.90;;;;;;10057203;29;20262;-79
2024/01/18 04:04:26;;;;;;;57.30;36.53;;;2.40;99.90;;;;;;10056081;29;20241;-80
2024/01/18 04:09:29;;;;;;;76.97;48.37;;;2.40;99.90;;;;;;10056864;29;20245;-80
2024/01/18 04:14:32;;;;;;;67.97;41.13;;;2.40;99.90;;;;;;10055694;29;20262;-80
2024/01/18 04:19:34;;;;;;;82.90;48.87;;;2.60;99.90;;;;;;10057506;29;20269;-80
2024/01/18 04:24:37;;;;;;;66.57;38.10;;;2.40;99.90;;;;;;10057515;29;20238;-79
2024/01/18 04:29:39;;;;;;;87.20;50.77;;;2.30;99.90;;;;;;10055757;29;20261;-80
2024/01/18 04:34:42;;;;;;;59.43;34.33;;;2.00;99.90;;;;;;10056422;29;20232;-80
2024/01/18 04:39:45;;;;;;;85.80;52.33;;;2.90;99.90;;;;;;10068478;29;20778;-79
2024/01/18 04:44:48;;;;;;;72.17;42.13;;;2.50;99.90;;;;;;10056420;29;20653;-79
2024/01/18 04:49:50;;;;;;;82.57;48.73;;;2.50;99.90;;;;;;10055065;29;20775;-79
2024/01/18 04:54:55;;;;;;;61.27;38.17;;;2.50;99.90;;;;;;10055986;29;20229;-79
2024/01/18 04:59:58;;;;;;;37.97;23.10;;;2.30;99.90;;;;;;10055812;29;20238;-79
2024/01/18 05:05:00;;;;;;;67.30;38.93;;;2.30;99.90;;;;;;10056288;29;20645;-79
2024/01/18 05:10:04;;;;;;;67.40;39.27;;;2.40;99.90;;;;;;10054754;29;20305;-80
2024/01/18 05:15:07;;;;;;;60.23;36.43;;;2.20;99.90;;;;;;10055406;29;20233;-80
2024/01/18 05:20:10;;;;;;;61.03;39.63;;;2.00;99.90;;;;;;10070256;29;20241;-80
2024/01/18 05:25:13;;;;;;;46.10;27.00;;;2.00;99.90;;;;;;10055255;29;20286;-80
2024/01/18 05:30:16;;;;;;;63.57;39.30;;;2.00;99.90;;;;;;10054869;29;20261;-80
2024/01/18 05:35:18;;;;;;;46.87;27.47;;;2.00;99.90;;;;;;10053468;29;20293;-80
2024/01/18 05:40:22;;;;;;;51.20;33.00;;;1.90;99.90;;;;;;10052966;29;20298;-80
2024/01/18 05:45:25;;;;;;;55.17;35.93;;;2.20;99.90;;;;;;10052457;29;20687;-80
2024/01/18 05:50:28;;;;;;;56.87;35.33;;;2.10;99.90;;;;;;10058985;29;20265;-79
2024/01/18 05:55:31;;;;;;;62.53;40.47;;;1.90;99.90;;;;;;10066871;29;20675;-79
2024/01/18 06:00:34;;;;;;;61.83;40.30;;;1.50;99.90;;;;;;10068927;29;20305;-79
2024/01/18 06:05:39;;;;;;;42.83;27.37;;;1.20;99.90;;;;;;10070063;29;20240;-80
2024/01/18 06:10:43;;;;;;;50.07;31.13;;;1.10;99.90;;;;;;10087034;29;20325;-80
2024/01/18 06:15:45;;;;;;;48.43;30.73;;;1.50;99.90;;;;;;10053659;29;20646;-80
2024/01/18 06:20:48;;;;;;;57.13;34.60;;;1.50;99.90;;;;;;10051916;29;20297;-79
2024/01/18 06:25:50;;;;;;;60.73;37.53;;;1.40;99.90;;;;;;10052122;29;20354;-79
2024/01/18 06:30:53;;;;;;;59.70;38.17;;;1.20;99.90;;;;;;10053374;29;20282;-79
2024/01/18 06:35:55;;;;;;;56.63;35.47;;;1.10;99.90;;;;;;10052792;29;20303;-79
2024/01/18 06:40:59;;;;;;;54.07;32.80;;;1.20;99.90;;;;;;10052340;29;20261;-79
2024/01/18 06:46:01;;;;;;;63.87;39.40;;;1.50;99.90;;;;;;10052288;29;20242;-79
2024/01/18 06:51:04;;;;;;;31.37;19.57;;;1.30;99.90;;;;;;10052037;29;20939;-79
2024/01/18 06:56:12;;;;;;;58.10;33.43;;;0.80;99.90;;;;;;10051659;29;20245;-83
2024/01/18 07:01:14;;;;;;;62.10;38.40;;;3.90;99.90;;;;;;10051138;29;20297;-83
2024/01/18 07:06:17;;;;;;;58.67;36.57;;;3.90;99.90;;;;;;10052149;29;20301;-83
2024/01/18 07:11:19;;;;;;;60.17;35.67;;;3.10;99.90;;;;;;10051991;29;20276;-83
2024/01/18 07:16:22;;;;;;;60.33;36.20;;;2.80;99.90;;;;;;10058024;29;20630;-83
2024/01/18 07:21:25;;;;;;;51.97;32.60;;;2.50;99.90;;;;;;10021298;29;20291;-83
2024/01/18 07:26:27;;;;;;;59.53;36.77;;;2.60;99.90;;;;;;10020967;29;20241;-83
2024/01/18 07:31:30;;;;;;;60.60;34.07;;;2.80;99.90;;;;;;10026343;29;20653;-80
2024/01/18 07:36:32;;;;;;;44.80;26.30;;;3.30;99.90;;;;;;10057798;29;20237;-81
2024/01/18 07:41:36;;;;;;;51.70;31.77;;;4.90;99.90;;;;;;10058236;29;20658;-79
2024/01/18 07:52:17;;;;;;;51.30;28.20;;;4.90;99.90;;;;;;11248705;23;20641;-79
2024/01/18 07:57:19;;;;;;;46.57;27.77;;;4.80;99.90;;;;;;10281261;28;20197;-79
2024/01/18 08:02:22;;;;;;;45.13;26.07;;;4.60;99.90;;;;;;10278610;28;20213;-80
2024/01/18 08:07:24;;;;;;;49.23;27.77;;;4.60;99.90;;;;;;10291412;28;20295;-81
2024/01/18 08:12:27;;;;;;;46.03;25.33;;;4.60;99.90;;;;;;10267281;28;20682;-80
2024/01/18 08:17:30;;;;;;;62.70;37.77;;;5.70;99.90;;;;;;10253071;28;20238;-78
2024/01/18 08:22:32;;;;;;;43.23;24.73;;;5.60;99.90;;;;;;10242493;28;20270;-81
2024/01/18 08:27:35;;;;;;;45.03;26.50;;;5.10;99.90;;;;;;10271802;28;20259;-80
2024/01/18 08:32:38;;;;;;;42.43;26.90;;;5.30;99.90;;;;;;10270888;28;20260;-80
2024/01/18 08:37:40;;;;;;;50.27;29.07;;;5.40;99.90;;;;;;10273521;28;20243;-80
2024/01/18 08:42:45;;;;;;;45.03;26.77;;;4.90;99.90;;;;;;10291343;28;20378;-80
2024/01/18 08:47:49;;;;;;;45.60;28.30;;;4.90;99.90;;;;;;10269909;28;20234;-80
2024/01/18 08:52:52;;;;;;;48.77;32.17;;;4.70;99.90;;;;;;10234249;29;20297;-80
2024/01/18 08:57:54;;;;;;;41.07;24.73;;;4.70;99.90;;;;;;10250995;29;20238;-80
2024/01/18 09:02:57;;;;;;;51.57;32.57;;;4.10;99.90;;;;;;10253619;28;20258;-80
2024/01/18 09:08:00;;;;;;;59.47;36.27;;;4.90;99.90;;;;;;10268190;28;20241;-80
2024/01/18 09:13:07;;;;;;;46.00;27.83;;;4.50;99.90;;;;;;10250566;28;20778;-80
2024/01/18 09:18:10;;;;;;;52.00;32.47;;;4.40;99.90;;;;;;10232725;29;20269;-80
2024/01/18 09:23:13;;;;;;;58.43;35.13;;;4.60;99.90;;;;;;10250825;28;20250;-79
2024/01/18 09:28:15;;;;;;;32.57;21.30;;;4.50;99.90;;;;;;10260731;28;20252;-79
2024/01/18 09:33:18;;;;;;;43.93;27.50;;;4.50;99.90;;;;;;10250988;28;20332;-79
2024/01/18 09:38:21;;;;;;;40.67;23.27;;;4.90;99.90;;;;;;10272438;28;20245;-79
2024/01/18 09:43:24;;;;;;;41.77;24.37;;;5.00;99.90;;;;;;10287997;28;20243;-79
2024/01/18 09:48:26;;;;;;;55.13;34.60;;;5.70;99.90;;;;;;10261920;28;20275;-79
2024/01/18 09:53:29;;;;;;;58.53;37.10;;;5.70;99.90;;;;;;10243255;28;20271;-80
2024/01/18 09:58:32;;;;;;;58.73;35.93;;;5.30;99.90;;;;;;10248805;28;20277;-79
2024/01/18 10:03:35;;;;;;;38.83;23.73;;;5.20;99.90;;;;;;10257159;28;20603;-80
2024/01/18 10:08:37;;;;;;;41.37;24.53;;;6.60;99.90;;;;;;10286960;28;20268;-80
2024/01/18 10:13:54;;;;;;;54.30;34.43;;;6.40;99.90;;;;;;10284082;28;20316;-80
2024/01/18 10:19:02;;;;;;;33.63;22.53;;;5.80;99.90;;;;;;10282567;28;20258;-80
2024/01/18 10:24:11;;;;;;;45.57;29.23;;;6.00;99.90;;;;;;10269332;28;20297;-80
2024/01/18 10:29:13;;;;;;;43.90;26.17;;;6.50;99.90;;;;;;10253376;28;20266;-80
2024/01/18 10:34:19;;;;;;;51.83;33.53;;;6.00;99.90;;;;;;10249566;28;20266;-81
2024/01/18 10:39:22;;;;;;;52.67;32.47;;;5.80;99.90;;;;;;10273241;28;20227;-81
2024/01/18 10:44:25;;;;;;;52.27;34.03;;;6.00;99.90;;;;;;10249306;28;20649;-80
2024/01/18 10:49:28;;;;;;;48.97;30.97;;;5.50;99.90;;;;;;10244695;28;20305;-80
2024/01/18 10:54:31;;;;;;;52.43;34.93;;;4.90;99.90;;;;;;10245731;28;20266;-80
2024/01/18 10:59:39;;;;;;;29.83;19.03;;;4.80;99.90;;;;;;10228548;29;20308;-80
2024/01/18 11:04:43;;;;;;;43.47;27.70;;;4.80;99.90;;;;;;10229785;28;20305;-80
2024/01/18 11:09:47;;;;;;;42.27;28.40;;;5.00;99.90;;;;;;10245357;29;20293;-80
2024/01/18 11:14:50;;;;;;;28.07;18.50;;;6.40;99.90;;;;;;10245420;28;20300;-81
2024/01/18 11:19:55;;;;;;;34.23;22.07;;;7.00;99.90;;;;;;10264243;28;20646;-81
2024/01/18 11:25:05;;;;;;;26.70;17.70;;;7.10;99.90;;;;;;10285551;28;20240;-81
2024/01/18 11:30:13;;;;;;;48.50;30.60;;;8.20;99.90;;;;;;10251775;28;20238;-80
2024/01/18 11:35:16;;;;;;;43.80;27.23;;;8.00;99.90;;;;;;10295782;28;20711;-80
2024/01/18 11:40:19;;;;;;;31.90;20.70;;;6.40;99.90;;;;;;10301937;28;20683;-80
2024/01/18 11:45:22;;;;;;;51.60;29.67;;;6.50;99.90;;;;;;10245590;29;20234;-81
2024/01/18 11:50:25;;;;;;;54.57;34.27;;;6.60;99.90;;;;;;10227848;29;20319;-80
2024/01/18 11:55:30;;;;;;;37.63;22.40;;;7.10;99.90;;;;;;10315457;28;20827;-80
2024/01/18 12:00:33;;;;;;;30.80;19.43;;;7.10;99.90;;;;;;10295821;28;20276;-80
2024/01/18 12:05:35;;;;;;;35.60;23.63;;;6.50;99.90;;;;;;10252391;28;20233;-80
2024/01/18 12:10:39;;;;;;;39.00;24.73;;;5.90;99.90;;;;;;10252415;29;20307;-80
2024/01/18 12:15:41;;;;;;;40.73;29.07;;;5.70;99.90;;;;;;10255297;28;20658;-81
2024/01/18 12:20:44;;;;;;;30.00;18.43;;;5.30;99.90;;;;;;10264324;28;20281;-81
2024/01/18 12:25:48;;;;;;;50.93;33.27;;;5.30;99.90;;;;;;10294917;28;20269;-81
2024/01/18 12:30:50;;;;;;;42.23;24.30;;;5.40;99.90;;;;;;10300769;28;20233;-80
2024/01/18 12:35:53;;;;;;;52.73;30.57;;;5.10;99.90;;;;;;10284305;28;20671;-80
2024/01/18 12:40:56;;;;;;;42.47;28.20;;;5.10;99.90;;;;;;10278590;28;20293;-80
2024/01/18 12:45:59;;;;;;;39.77;25.87;;;4.70;99.90;;;;;;10262249;28;20284;-80
2024/01/18 12:51:01;;;;;;;72.10;38.87;;;4.70;99.90;;;;;;10262148;28;20714;-80
2024/01/18 12:56:09;;;;;;;54.43;31.57;;;5.00;99.90;;;;;;10243236;28;20648;-80
2024/01/18 13:01:47;;;;;;;35.63;23.63;;;4.90;99.90;;;;;;10253651;28;20304;-80
2024/01/18 13:06:51;;;;;;;40.30;25.17;;;4.80;99.90;;;;;;10260067;28;20316;-79
2024/01/18 13:12:04;;;;;;;38.20;23.13;;;4.30;99.90;;;;;;10234623;28;20254;-82
2024/01/18 13:17:08;;;;;;;40.43;25.60;;;6.50;99.90;;;;;;10216809;29;20359;-83
2024/01/18 13:22:11;;;;;;;38.30;24.43;;;6.70;99.90;;;;;;10249496;29;20309;-83
2024/01/18 13:27:13;;;;;;;33.50;22.70;;;6.20;99.90;;;;;;10232435;29;20979;-83
2024/01/18 13:32:15;;;;;;;32.63;21.27;;;5.80;99.90;;;;;;10277683;28;20276;-84
2024/01/18 13:37:18;;;;;;;46.50;27.53;;;7.00;99.90;;;;;;10274286;28;20292;-84
2024/01/18 13:42:32;;;;;;;36.07;22.87;;;6.00;99.90;;;;;;10234040;29;20226;-84
2024/01/18 13:47:35;;;;;;;41.40;24.23;;;5.00;99.90;;;;;;10266062;28;20300;-85
2024/01/18 13:52:38;;;;;;;35.00;23.93;;;4.90;99.90;;;;;;10256927;28;20300;-86
2024/01/18 13:57:41;;;;;;;20.73;14.40;;;5.10;99.90;;;;;;10276589;28;20657;-85
2024/01/18 14:02:44;;;;;;;31.53;20.13;;;5.30;99.90;;;;;;10284001;28;20292;-85
2024/01/18 14:07:47;;;;;;;37.67;21.17;;;5.40;99.90;;;;;;10277358;28;20235;-85
2024/01/18 14:12:51;;;;;;;28.00;17.23;;;5.10;99.90;;;;;;10235375;28;20694;-85
2024/01/18 14:17:54;;;;;;;35.20;20.93;;;5.00;99.90;;;;;;10250043;28;20237;-85
2024/01/18 14:22:59;;;;;;;33.17;21.33;;;4.80;99.90;;;;;;10268166;28;20239;-86
2024/01/18 14:28:05;;;;;;;31.20;20.67;;;5.10;99.90;;;;;;10250842;28;20253;-85
2024/01/18 14:33:08;;;;;;;33.70;19.97;;;4.90;99.90;;;;;;10267214;28;20315;-85
2024/01/18 14:38:11;;;;;;;28.80;20.03;;;4.60;99.90;;;;;;10267386;28;20206;-85
2024/01/18 14:43:14;;;;;;;36.50;23.67;;;4.50;99.90;;;;;;10268726;28;20906;-85
2024/01/18 14:48:17;;;;;;;37.37;23.37;;;4.00;99.90;;;;;;10292827;28;20207;-85
2024/01/18 14:53:20;;;;;;;36.70;23.67;;;3.70;99.90;;;;;;10248845;28;20317;-84
2024/01/18 14:58:23;;;;;;;34.90;18.57;;;3.90;99.90;;;;;;10258942;28;20203;-84
2024/01/18 15:03:26;;;;;;;27.10;18.37;;;4.60;99.90;;;;;;10267628;28;20250;-85
2024/01/18 15:08:28;;;;;;;31.20;19.57;;;4.60;99.90;;;;;;10264521;28;20730;-84
2024/01/18 15:13:31;;;;;;;50.10;28.53;;;4.70;99.90;;;;;;10287073;28;20306;-84
2024/01/18 15:18:33;;;;;;;33.20;22.27;;;4.50;99.90;;;;;;10288511;28;20669;-85
2024/01/18 15:23:36;;;;;;;49.03;29.97;;;4.80;99.90;;;;;;10295629;28;20288;-85
2024/01/18 15:28:38;;;;;;;53.27;32.80;;;4.30;99.90;;;;;;10284713;28;20280;-85
2024/01/18 15:33:41;;;;;;;48.77;31.93;;;3.40;99.90;;;;;;10261836;28;20259;-85
2024/01/18 15:38:43;;;;;;;53.87;34.90;;;2.90;99.90;;;;;;10266643;28;20274;-84
2024/01/18 15:43:46;;;;;;;49.33;30.47;;;3.30;99.90;;;;;;10301397;28;20214;-84
2024/01/18 15:48:57;;;;;;;47.03;28.57;;;3.50;99.90;;;;;;10294448;28;21024;-83
2024/01/18 15:54:00;;;;;;;54.80;32.33;;;3.30;99.90;;;;;;10288348;28;20720;-84
2024/01/18 15:59:03;;;;;;;55.87;35.73;;;3.50;99.90;;;;;;10275239;28;20237;-84
2024/01/18 16:04:05;;;;;;;51.83;32.80;;;3.30;99.90;;;;;;10292463;28;20287;-83
2024/01/18 16:09:08;;;;;;;56.47;34.23;;;3.20;99.90;;;;;;10275421;28;20241;-83
2024/01/18 16:14:10;;;;;;;42.73;25.67;;;3.40;99.90;;;;;;10281471;28;20249;-83
2024/01/18 16:19:18;;;;;;;41.83;25.93;;;3.40;99.90;;;;;;10234557;29;20241;-83
2024/01/18 16:24:22;;;;;;;40.63;26.50;;;3.60;99.90;;;;;;10235337;29;20242;-83
2024/01/18 16:29:25;;;;;;;28.33;17.13;;;5.80;99.90;;;;;;10252047;29;20974;-84
2024/01/18 16:34:36;;;;;;;51.03;28.80;;;5.30;99.90;;;;;;10277753;28;20284;-84
2024/01/18 16:39:40;;;;;;;41.13;24.97;;;5.00;99.90;;;;;;10288576;28;20271;-83
2024/01/18 16:44:42;;;;;;;44.37;25.53;;;4.60;99.90;;;;;;10292123;28;20658;-83
2024/01/18 16:49:45;;;;;;;43.73;25.53;;;5.20;99.90;;;;;;10273240;28;20222;-83
2024/01/18 16:54:48;;;;;;;45.03;27.37;;;5.70;99.90;;;;;;10285282;28;20261;-83
2024/01/18 16:59:50;;;;;;;42.87;25.57;;;5.10;99.90;;;;;;10249223;28;20208;-83
2024/01/18 17:04:53;;;;;;;33.40;22.00;;;4.70;99.90;;;;;;10256291;28;20233;-84
2024/01/18 17:09:56;;;;;;;38.47;23.20;;;4.80;99.90;;;;;;10261424;28;20235;-82
2024/01/18 17:15:03;;;;;;;57.20;38.33;;;5.20;99.90;;;;;;10262024;28;20297;-81
2024/01/18 17:20:06;;;;;;;54.67;37.23;;;4.40;99.90;;;;;;10259058;28;20350;-82
2024/01/18 17:25:09;;;;;;;56.60;38.27;;;1.00;99.90;;;;;;10250323;29;20246;-82
2024/01/18 17:30:13;;;;;;;60.10;38.97;;;-0.20;99.90;;;;;;10232246;29;20250;-82
2024/01/18 17:35:16;;;;;;;57.13;28.40;;;-0.70;99.90;;;;;;10250074;29;20262;-81
2024/01/18 17:40:20;;;;;;;44.97;27.10;;;-0.70;99.90;;;;;;10242336;28;20246;-81
2024/01/18 17:45:22;;;;;;;31.70;15.60;;;0.10;99.90;;;;;;10278957;28;20265;-82
2024/01/18 17:50:25;;;;;;;49.80;30.23;;;1.00;99.90;;;;;;10289217;28;20300;-82
2024/01/18 17:55:28;;;;;;;20.30;11.97;;;1.40;99.90;;;;;;10287648;28;20316;-82
2024/01/18 18:00:30;;;;;;;37.30;21.73;;;1.70;99.90;;;;;;10270886;28;20283;-82
2024/01/18 18:05:41;;;;;;;37.47;21.87;;;2.30;99.90;;;;;;10262356;28;20238;-81
2024/01/18 18:10:43;;;;;;;32.17;18.40;;;2.40;99.90;;;;;;10272833;28;20296;-82
2024/01/18 18:15:46;;;;;;;30.87;16.53;;;1.90;99.90;;;;;;10285761;28;20724;-81
2024/01/18 18:20:52;;;;;;;35.97;23.23;;;3.30;99.90;;;;;;10256211;28;20234;-81
2024/01/18 18:25:55;;;;;;;26.97;14.87;;;1.60;99.90;;;;;;10245196;28;20292;-81
2024/01/18 18:30:57;;;;;;;32.83;15.80;;;1.20;99.90;;;;;;10262470;28;20233;-81
2024/01/18 18:36:00;;;;;;;27.80;13.50;;;0.90;99.90;;;;;;10265579;28;20264;-81
2024/01/18 18:41:05;;;;;;;31.73;18.87;;;2.60;99.90;;;;;;10253997;28;20205;-81
2024/01/18 18:46:08;;;;;;;24.97;15.87;;;3.10;99.90;;;;;;10252656;28;20240;-81
2024/01/18 18:51:11;;;;;;;21.47;12.77;;;3.20;99.90;;;;;;10257072;28;20653;-81
2024/01/18 18:56:13;;;;;;;26.33;17.33;;;3.30;99.90;;;;;;10268990;28;20254;-80
2024/01/18 19:01:16;;;;;;;25.60;16.83;;;3.00;99.90;;;;;;10249460;28;20229;-81
2024/01/18 19:06:18;;;;;;;30.97;19.07;;;3.40;99.90;;;;;;10275230;28;20269;-81
2024/01/18 19:11:21;;;;;;;23.13;15.27;;;3.40;99.90;;;;;;10268190;28;20270;-81
2024/01/18 19:16:23;;;;;;;31.67;19.97;;;4.20;99.90;;;;;;10209995;28;20280;-82
2024/01/18 19:21:27;;;;;;;37.43;21.87;;;4.30;99.90;;;;;;10260669;28;20239;-82
2024/01/18 19:26:30;;;;;;;29.83;18.97;;;4.00;99.90;;;;;;10285120;28;20257;-82
2024/01/18 19:31:34;;;;;;;23.33;14.40;;;3.60;99.90;;;;;;10281468;28;20917;-82
2024/01/18 19:36:37;;;;;;;26.13;18.03;;;4.20;99.90;;;;;;10283290;28;20285;-82
2024/01/18 19:41:39;;;;;;;25.90;17.40;;;4.20;99.90;;;;;;10243159;28;20262;-82
2024/01/18 19:46:42;;;;;;;47.90;28.57;;;4.60;99.90;;;;;;10259597;28;20309;-82
2024/01/18 19:51:44;;;;;;;26.67;17.57;;;3.70;99.90;;;;;;10263621;28;20726;-82
2024/01/18 19:56:47;;;;;;;21.73;13.47;;;4.70;99.90;;;;;;10257611;28;20255;-81
2024/01/18 20:01:49;;;;;;;26.00;12.30;;;5.40;99.90;;;;;;9892739;28;10000311;-81
2024/01/18 20:06:52;;;;;;;26.27;16.43;;;6.30;99.90;;;;;;10280044;28;20288;-82
2024/01/18 20:11:55;;;;;;;30.83;17.53;;;8.20;99.90;;;;;;10284560;28;20229;-82
2024/01/18 20:16:58;;;;;;;17.50;10.60;;;7.10;99.90;;;;;;10269809;28;20379;-81
2024/01/18 20:22:00;;;;;;;29.70;17.53;;;7.70;99.90;;;;;;10249310;28;20237;-82
2024/01/18 20:27:03;;;;;;;36.80;21.27;;;8.90;99.90;;;;;;10273471;28;20249;-83
2024/01/18 20:32:06;;;;;;;25.77;14.83;;;8.70;99.90;;;;;;10285876;28;20244;-82
2024/01/18 20:37:10;;;;;;;22.80;12.10;;;9.10;99.90;;;;;;10278723;28;20263;-81
2024/01/18 20:42:12;;;;;;;28.13;12.73;;;7.70;99.90;;;;;;10289963;28;20268;-77
2024/01/18 20:47:15;;;;;;;24.97;13.40;;;7.50;99.90;;;;;;10290481;28;20245;-77
2024/01/18 20:52:17;;;;;;;37.93;23.87;;;5.90;99.90;;;;;;10281226;28;20320;-77
2024/01/18 20:57:20;;;;;;;31.50;20.60;;;2.30;99.90;;;;;;10290758;28;20276;-77
2024/01/18 21:02:22;;;;;;;28.93;18.50;;;-0.30;99.90;;;;;;10242369;28;20299;-77
2024/01/18 21:07:25;;;;;;;24.93;17.17;;;-1.20;99.90;;;;;;10288136;28;20322;-77
2024/01/18 21:12:27;;;;;;;26.23;17.20;;;-1.70;99.90;;;;;;10288855;28;20243;-77
2024/01/18 21:17:30;;;;;;;29.37;18.13;;;-2.00;99.90;;;;;;10254401;28;20329;-77
2024/01/18 21:22:33;;;;;;;28.83;17.87;;;-2.10;99.90;;;;;;10279983;28;20269;-77
2024/01/18 21:27:35;;;;;;;27.07;17.50;;;-2.10;99.90;;;;;;10285666;28;20300;-77
2024/01/18 21:32:38;;;;;;;30.90;18.67;;;-2.10;99.90;;;;;;10287891;28;20364;-77
2024/01/18 21:37:40;;;;;;;35.80;20.37;;;-2.10;99.90;;;;;;10268652;28;20262;-76
2024/01/18 21:42:43;;;;;;;32.87;18.93;;;-2.10;99.90;;;;;;10277371;28;20753;-77
2024/01/18 21:47:47;;;;;;;38.17;21.27;;;-2.20;99.90;;;;;;10270423;28;20241;-76
2024/01/18 21:52:50;;;;;;;54.60;27.57;;;-2.30;99.90;;;;;;10254544;28;20262;-76
2024/01/18 21:57:52;;;;;;;40.50;22.30;;;-2.60;99.90;;;;;;10278518;28;20249;-78
2024/01/18 22:02:55;;;;;;;39.23;23.33;;;-2.80;99.90;;;;;;10277072;28;20229;-78
2024/01/18 22:07:58;;;;;;;46.33;26.50;;;-3.10;99.90;;;;;;10260484;28;20827;-77
2024/01/18 22:13:03;;;;;;;25.50;13.70;;;-3.30;99.90;;;;;;10285083;28;20238;-78
2024/01/18 22:18:06;;;;;;;9.00;6.67;;;-3.20;99.90;;;;;;10284252;28;20262;-77
2024/01/18 22:23:09;;;;;;;23.03;12.90;;;-2.40;99.90;;;;;;10261817;28;20284;-78
2024/01/18 22:28:12;;;;;;;35.10;19.33;;;-1.60;99.90;;;;;;10251488;28;20272;-78
2024/01/18 22:33:14;;;;;;;23.40;13.13;;;-1.70;99.90;;;;;;10262125;28;20654;-78
2024/01/18 22:38:18;;;;;;;52.50;20.00;;;-1.80;99.90;;;;;;10267333;28;20265;-78
2024/01/18 22:43:20;;;;;;;36.47;16.93;;;-1.00;99.90;;;;;;10264423;28;20615;-78
2024/01/18 22:48:23;;;;;;;42.20;19.77;;;-0.20;99.90;;;;;;10266539;28;20242;-78
2024/01/18 22:53:26;;;;;;;23.50;14.33;;;0.60;99.90;;;;;;10267535;28;21036;-77
2024/01/18 22:58:30;;;;;;;29.90;17.83;;;1.10;99.90;;;;;;10244765;28;20253;-77
2024/01/18 23:03:36;;;;;;;21.13;11.80;;;2.10;99.90;;;;;;10260259;28;20221;-77
2024/01/18 23:08:38;;;;;;;38.47;22.93;;;3.60;99.90;;;;;;10256944;28;20242;-77
2024/01/18 23:13:42;;;;;;;19.80;11.90;;;4.30;99.90;;;;;;10261678;28;20683;-78
2024/01/18 23:18:44;;;;;;;23.40;13.53;;;4.60;99.90;;;;;;10266185;28;20253;-78
2024/01/18 23:23:49;;;;;;;32.77;20.33;;;5.30;99.90;;;;;;10262589;28;20237;-78
2024/01/18 23:28:52;;;;;;;30.13;18.10;;;5.40;99.90;;;;;;10271761;28;20269;-77
2024/01/18 23:33:54;;;;;;;24.30;14.37;;;5.40;99.90;;;;;;10272118;28;20598;-77
2024/01/18 23:38:57;;;;;;;22.97;12.77;;;5.50;99.90;;;;;;10252127;28;20238;-77
2024/01/18 23:43:59;;;;;;;28.37;16.73;;;4.90;99.90;;;;;;10274303;28;20238;-78
2024/01/18 23:49:02;;;;;;;18.73;11.20;;;5.00;99.90;;;;;;10260201;28;20257;-78
2024/01/18 23:54:06;;;;;;;18.40;12.13;;;5.20;99.90;;;;;;10263926;28;20266;-78
2024/01/18 23:59:09;;;;;;;30.30;15.97;;;5.30;99.90;;;;;;10255704;28;20269;-78
